Time;durP1;ratioP1;P1;durP2;ratioP2;P2;SDS_P1;SDS_P2;PMS_P1;PMS_P2;Temp;Humidity;BMP_temperature;BMP_pressure;BME280_temperature;BME280_humidity;BME280_pressure;Samples;Min_cycle;Max_cycle;Signal;HPM_P1;HPM_P2
2021/01/25 00:01:54;;;;;;;1.49;1.08;;;;;;;0.95;86.64;97531.13;2011068;81;20317;-83
2021/01/25 00:04:56;;;;;;;1.01;0.96;;;;;;;0.97;86.91;97526.03;2014126;80;20352;-82
2021/01/25 00:07:58;;;;;;;1.44;1.34;;;;;;;0.97;86.97;97520.91;2013016;81;20361;-81
2021/01/25 00:11:00;;;;;;;1.09;0.81;;;;;;;1.03;86.94;97532.00;2014501;81;20339;-82
2021/01/25 00:14:02;;;;;;;3.10;0.90;;;;;;;1.04;86.74;97520.06;2014412;80;20350;-82
2021/01/25 00:17:04;;;;;;;1.21;1.00;;;;;;;0.99;86.64;97524.31;2014324;81;20343;-83
2021/01/25 00:20:06;;;;;;;1.34;1.07;;;;;;;0.98;86.72;97520.06;2014195;81;20231;-83
2021/01/25 00:23:08;;;;;;;1.16;1.01;;;;;;;1.01;86.82;97518.38;2012168;80;20209;-83
2021/01/25 00:26:10;;;;;;;1.66;1.28;;;;;;;1.07;86.93;97509.84;2015763;81;20203;-82
2021/01/25 00:29:11;;;;;;;1.04;0.96;;;;;;;1.08;87.01;97517.56;2013726;81;20295;-82
2021/01/25 00:35:33;;;;;;;1.17;1.11;;;;;;;1.04;86.86;97520.06;2016110;70;21108;-74
2021/01/25 00:38:35;;;;;;;2.58;1.10;;;;;;;1.05;86.86;97520.06;1998489;81;20957;-75
2021/01/25 00:41:36;;;;;;;2.45;0.90;;;;;;;1.03;86.72;97524.34;2000030;81;20329;-73
2021/01/25 00:44:38;;;;;;;1.19;1.04;;;;;;;1.00;86.87;97514.09;1999902;80;20859;-74
2021/01/25 00:47:40;;;;;;;2.29;0.76;;;;;;;1.05;86.79;97521.78;1999194;81;20312;-74
2021/01/25 00:50:42;;;;;;;1.49;1.02;;;;;;;1.05;86.83;97519.22;2001110;80;20479;-74
2021/01/25 00:53:43;;;;;;;1.42;1.00;;;;;;;1.04;86.91;97515.81;2001076;80;20866;-74
2021/01/25 00:56:48;;;;;;;1.13;1.00;;;;;;;1.03;86.73;97518.38;2001933;81;20317;-74
2021/01/25 00:59:50;;;;;;;1.11;1.06;;;;;;;1.02;86.89;97522.63;2001476;81;20790;-75
2021/01/25 01:02:52;;;;;;;1.62;1.10;;;;;;;1.03;86.92;97514.09;2000815;81;20332;-74
2021/01/25 01:05:53;;;;;;;1.94;0.96;;;;;;;1.01;86.93;97520.91;2001558;81;20637;-75
2021/01/25 01:08:55;;;;;;;0.98;0.85;;;;;;;1.03;87.02;97526.03;2004106;80;20369;-74
2021/01/25 01:11:57;;;;;;;1.11;0.90;;;;;;;1.03;87.01;97528.59;2001004;81;20349;-75
2021/01/25 01:14:59;;;;;;;0.96;0.83;;;;;;;0.98;87.09;97522.63;2001691;80;21037;-75
2021/01/25 01:18:00;;;;;;;2.84;1.10;;;;;;;0.96;87.25;97525.16;2000335;81;20214;-75
2021/01/25 01:21:03;;;;;;;0.90;0.90;;;;;;;0.97;87.31;97526.03;2000258;81;20332;-75
2021/01/25 01:24:06;;;;;;;1.33;0.96;;;;;;;1.01;87.43;97535.41;1999740;80;20380;-75
2021/01/25 01:27:08;;;;;;;1.00;0.96;;;;;;;1.00;87.29;97536.25;2001833;81;20827;-75
2021/01/25 01:30:10;;;;;;;1.83;0.80;;;;;;;0.99;87.33;97532.84;2001815;81;20328;-75
2021/01/25 01:33:12;;;;;;;0.80;0.74;;;;;;;0.99;87.35;97537.94;2001260;80;20376;-75
2021/01/25 01:36:14;;;;;;;1.39;1.00;;;;;;;0.99;87.28;97532.84;2001095;81;20352;-75
2021/01/25 01:39:15;;;;;;;0.80;0.80;;;;;;;0.94;87.23;97538.78;2001929;81;20316;-76
2021/01/25 01:42:18;;;;;;;1.35;1.04;;;;;;;0.90;87.38;97543.03;2002025;81;20324;-75
2021/01/25 01:45:20;;;;;;;1.44;1.08;;;;;;;0.90;87.41;97533.69;2001487;80;20768;-75
2021/01/25 01:48:22;;;;;;;0.93;0.93;;;;;;;0.92;87.36;97531.13;2001717;81;20217;-75
2021/01/25 01:51:24;;;;;;;1.19;1.09;;;;;;;0.92;87.51;97531.13;1998376;81;20344;-75
2021/01/25 01:54:26;;;;;;;1.40;0.99;;;;;;;0.90;87.53;97528.56;2000925;81;20340;-75
2021/01/25 01:57:29;;;;;;;1.20;1.07;;;;;;;0.93;87.54;97521.75;2002366;81;20286;-75
2021/01/25 02:00:34;;;;;;;1.01;0.81;;;;;;;0.89;87.55;97526.84;2001129;81;20181;-75
2021/01/25 02:03:36;;;;;;;1.11;0.99;;;;;;;0.93;87.81;97520.06;2000025;80;20811;-75
2021/01/25 02:06:38;;;;;;;0.89;0.89;;;;;;;0.94;87.72;97533.69;1999735;81;20182;-74
2021/01/25 02:09:44;;;;;;;0.90;0.90;;;;;;;0.96;87.77;97524.31;1999375;81;20275;-75
2021/01/25 02:12:48;;;;;;;2.75;0.99;;;;;;;0.95;87.67;97525.16;1999034;80;21350;-75
2021/01/25 02:15:51;;;;;;;1.04;0.94;;;;;;;0.98;87.70;97535.41;1998753;81;20341;-75
2021/01/25 02:18:53;;;;;;;1.03;0.88;;;;;;;0.92;87.51;97526.00;1998751;81;20719;-75
2021/01/25 02:22:16;;;;;;;1.51;1.14;;;;;;;0.95;87.69;97527.72;2000481;81;20683;-75
2021/01/25 02:25:47;;;;;;;1.40;1.30;;;;;;;0.95;87.60;97532.84;2000031;80;20344;-75
2021/01/25 02:28:50;;;;;;;0.97;0.97;;;;;;;0.96;87.63;97531.97;2000757;81;20195;-75
2021/01/25 02:31:52;;;;;;;1.35;1.16;;;;;;;0.94;87.67;97528.56;1999952;81;20197;-75
2021/01/25 02:34:55;;;;;;;2.17;1.10;;;;;;;0.97;87.59;97526.88;1999820;81;20324;-74
2021/01/25 02:37:57;;;;;;;1.15;1.05;;;;;;;0.98;87.69;97527.72;2000340;81;20197;-75
2021/01/25 02:41:00;;;;;;;0.98;0.90;;;;;;;1.01;87.59;97523.47;1999728;81;20368;-75
2021/01/25 02:44:03;;;;;;;1.14;1.07;;;;;;;0.99;87.54;97527.72;1999888;80;20482;-75
2021/01/25 02:47:06;;;;;;;1.84;1.20;;;;;;;0.98;87.60;97532.84;2000083;81;20174;-74
2021/01/25 02:50:08;;;;;;;1.20;1.01;;;;;;;0.97;87.61;97526.03;2000216;81;20320;-74
2021/01/25 02:53:10;;;;;;;1.15;1.08;;;;;;;0.97;87.68;97526.03;2000030;80;20494;-74
2021/01/25 02:56:12;;;;;;;2.38;1.54;;;;;;;0.98;87.62;97533.69;2000773;81;20879;-74
2021/01/25 02:59:15;;;;;;;1.94;1.24;;;;;;;0.95;87.64;97531.13;2000283;81;21197;-74
2021/01/25 03:02:17;;;;;;;1.29;1.01;;;;;;;0.96;87.64;97529.44;2000759;81;20208;-74
2021/01/25 03:05:19;;;;;;;1.44;1.30;;;;;;;0.88;87.62;97527.69;2001202;80;20374;-74
2021/01/25 03:08:21;;;;;;;1.10;1.01;;;;;;;0.85;87.95;97529.38;2001069;81;20343;-74
2021/01/25 03:11:23;;;;;;;1.45;1.35;;;;;;;0.86;88.01;97537.03;2001279;81;20328;-74
2021/01/25 03:14:24;;;;;;;1.38;1.11;;;;;;;0.83;88.07;97534.47;2001261;80;20794;-74
2021/01/25 03:17:26;;;;;;;1.21;1.06;;;;;;;0.81;88.23;97536.19;2001132;81;20161;-74
2021/01/25 03:20:28;;;;;;;1.56;1.40;;;;;;;0.80;88.36;97543.84;2001019;81;20339;-74
2021/01/25 03:23:30;;;;;;;1.38;1.23;;;;;;;0.80;88.53;97534.47;2000787;81;20332;-74
2021/01/25 03:26:31;;;;;;;1.50;1.40;;;;;;;0.81;88.51;97540.44;2001502;81;20378;-74
2021/01/25 03:29:33;;;;;;;1.44;1.34;;;;;;;0.83;88.69;97541.28;2001667;81;20441;-75
2021/01/25 03:32:35;;;;;;;1.50;1.40;;;;;;;0.82;88.52;97540.44;2003912;80;20342;-74
2021/01/25 03:35:37;;;;;;;1.91;1.51;;;;;;;0.82;88.61;97542.16;2000683;80;20336;-74
2021/01/25 03:38:38;;;;;;;1.60;1.50;;;;;;;0.80;88.63;97538.72;2001277;81;20332;-74
2021/01/25 03:41:40;;;;;;;1.91;1.76;;;;;;;0.82;88.83;97545.56;2001194;81;20330;-74
2021/01/25 03:44:41;;;;;;;2.63;1.52;;;;;;;0.87;88.74;97551.53;2001055;81;20865;-74
2021/01/25 03:47:43;;;;;;;1.62;1.52;;;;;;;0.88;88.74;97545.56;2001776;81;20568;-75
2021/01/25 03:50:45;;;;;;;1.56;1.44;;;;;;;0.89;88.62;97544.72;2001590;81;20170;-75
2021/01/25 03:53:47;;;;;;;1.85;1.52;;;;;;;0.89;88.68;97548.97;2000457;80;20202;-75
2021/01/25 03:56:49;;;;;;;1.73;1.63;;;;;;;0.88;88.59;97547.25;2001114;81;20649;-75
2021/01/25 03:59:50;;;;;;;1.97;1.78;;;;;;;0.87;88.71;97543.00;2001280;81;20587;-75
2021/01/25 04:02:52;;;;;;;1.50;1.40;;;;;;;0.87;88.65;97548.97;2000688;81;20270;-75
2021/01/25 04:05:54;;;;;;;2.01;1.90;;;;;;;0.89;88.80;97554.09;1999826;81;20217;-75
2021/01/25 04:08:55;;;;;;;1.96;1.86;;;;;;;0.91;88.75;97557.53;2000450;81;20158;-75
2021/01/25 04:11:57;;;;;;;2.17;2.08;;;;;;;0.86;88.61;97562.59;1999065;81;20316;-76
2021/01/25 04:14:59;;;;;;;2.31;2.20;;;;;;;0.87;88.73;97568.56;1999139;81;20346;-76
2021/01/25 04:18:01;;;;;;;2.54;2.34;;;;;;;0.85;88.76;97566.00;2000250;81;20225;-76
2021/01/25 04:21:03;;;;;;;2.62;2.42;;;;;;;0.84;88.84;97566.00;2000297;81;20925;-76
2021/01/25 04:24:05;;;;;;;2.46;2.26;;;;;;;0.83;88.89;97570.25;2000112;81;20227;-77
2021/01/25 04:27:13;;;;;;;2.42;2.28;;;;;;;0.83;88.98;97575.34;1999647;81;20587;-77
2021/01/25 04:30:15;;;;;;;2.33;2.14;;;;;;;0.84;88.96;97574.50;2000194;81;20200;-77
2021/01/25 04:33:17;;;;;;;2.26;2.16;;;;;;;0.83;88.96;97575.34;1999302;81;20364;-77
2021/01/25 04:36:21;;;;;;;2.48;2.33;;;;;;;0.82;89.00;97588.97;1999748;81;20463;-76
2021/01/25 04:39:23;;;;;;;2.49;2.29;;;;;;;0.82;89.02;97583.88;2000057;81;20631;-77
2021/01/25 04:42:25;;;;;;;3.61;2.64;;;;;;;0.85;89.13;97585.56;2000912;81;20170;-77
2021/01/25 04:45:27;;;;;;;2.33;2.23;;;;;;;0.87;89.16;97584.72;2001106;81;20372;-77
2021/01/25 04:48:30;;;;;;;3.17;2.62;;;;;;;0.89;89.12;97585.59;2000800;81;20165;-77
2021/01/25 04:51:31;;;;;;;2.70;2.50;;;;;;;0.88;88.92;97588.13;2001892;81;20166;-77
2021/01/25 04:54:34;;;;;;;2.71;2.51;;;;;;;0.85;88.99;97591.53;2001284;81;20352;-76
2021/01/25 04:57:37;;;;;;;3.47;2.77;;;;;;;0.88;89.16;97599.22;2017993;80;20349;-84
2021/01/25 05:00:40;;;;;;;2.46;2.32;;;;;;;0.88;88.90;97595.81;2015112;81;20195;-83
2021/01/25 05:03:41;;;;;;;2.61;2.41;;;;;;;0.85;88.96;97603.47;2015368;80;20207;-84
2021/01/25 05:06:43;;;;;;;2.80;2.42;;;;;;;0.83;89.07;97602.59;2016596;80;20344;-84
2021/01/25 05:09:45;;;;;;;3.16;2.86;;;;;;;0.86;89.19;97607.72;2016695;80;20324;-84
2021/01/25 05:12:48;;;;;;;2.72;2.52;;;;;;;0.88;89.16;97608.59;2016402;80;20393;-84
2021/01/25 05:15:52;;;;;;;2.32;2.18;;;;;;;0.90;89.08;97615.44;2018081;81;20185;-84
2021/01/25 05:19:01;;;;;;;2.79;2.59;;;;;;;0.89;89.03;97620.50;2018697;81;20135;-85
2021/01/25 05:36:32;;;;;;;2.64;2.45;;;;;;;0.87;nan;97630.72;2330959;68;20164;-85
2021/01/25 05:39:37;;;;;;;2.75;2.55;;;;;;;0.92;89.25;97637.56;2331783;69;20350;-85
2021/01/25 05:42:41;;;;;;;2.66;2.47;;;;;;;0.91;89.15;97634.16;2333333;69;20310;-85
2021/01/25 05:45:43;;;;;;;1.98;1.77;;;;;;;0.90;89.16;97635.88;2334157;69;20304;-85
2021/01/25 05:52:18;;;;;;;1.79;1.69;;;;;;;0.90;88.98;97650.34;2347300;68;20155;-84
2021/01/25 05:55:21;;;;;;;1.81;1.69;;;;;;;0.88;89.01;97650.31;2349715;68;20131;-85
2021/01/25 05:58:23;;;;;;;1.70;1.60;;;;;;;0.92;89.14;97655.47;2345995;68;20311;-83
2021/01/25 06:01:25;;;;;;;1.80;1.67;;;;;;;0.93;89.08;97652.06;2347364;68;20103;-84
2021/01/25 06:04:29;;;;;;;1.41;1.31;;;;;;;0.93;89.10;97647.81;2352302;68;20184;-86
2021/01/25 06:07:32;;;;;;;1.68;1.53;;;;;;;0.92;89.08;97656.31;2343012;68;20237;-85
2021/01/25 06:17:38;;;;;;;1.49;1.39;;;;;;;0.98;89.03;97664.00;2339174;68;20346;-84
2021/01/25 06:20:41;;;;;;;1.37;1.14;;;;;;;0.96;88.86;97658.03;2338257;68;20159;-83
2021/01/25 06:23:45;;;;;;;1.24;1.14;;;;;;;0.97;88.88;97666.56;2342704;68;20174;-84
2021/01/25 06:26:49;;;;;;;1.38;1.27;;;;;;;0.98;88.92;97669.13;2342420;68;20312;-83
2021/01/25 06:29:51;;;;;;;1.62;1.52;;;;;;;0.97;88.92;97676.78;2340995;68;20168;-84
2021/01/25 06:32:54;;;;;;;1.17;1.08;;;;;;;0.96;88.76;97677.63;2343640;68;20167;-84
2021/01/25 06:35:56;;;;;;;1.30;1.20;;;;;;;0.97;88.97;97684.44;2335596;68;20295;-83
2021/01/25 06:38:59;;;;;;;1.20;1.10;;;;;;;0.95;88.95;97681.88;2339330;68;20163;-84
2021/01/25 06:42:03;;;;;;;2.04;0.98;;;;;;;0.98;89.00;97697.22;2332117;68;21027;-78
2021/01/25 06:45:06;;;;;;;1.66;1.06;;;;;;;0.97;88.96;97699.78;2328047;68;20326;-83
2021/01/25 06:48:16;;;;;;;1.39;0.93;;;;;;;0.99;89.02;97701.47;2332929;68;20142;-81
2021/01/25 06:51:20;;;;;;;1.48;1.38;;;;;;;0.99;89.02;97709.16;2335666;68;20662;-82
2021/01/25 06:54:24;;;;;;;1.30;1.18;;;;;;;1.02;89.05;97714.28;2331516;68;20166;-82
2021/01/25 06:57:26;;;;;;;2.76;1.29;;;;;;;1.04;89.08;97721.94;2333799;68;20278;-82
2021/01/25 07:00:31;;;;;;;2.50;1.41;;;;;;;1.08;89.01;97723.69;2330297;68;20454;-77
2021/01/25 07:03:56;;;;;;;1.75;1.14;;;;;;;1.09;89.00;97730.53;2322397;68;20295;-81
2021/01/25 07:06:58;;;;;;;1.30;1.20;;;;;;;1.10;88.93;97739.91;2328256;68;20851;-80
2021/01/25 07:10:04;;;;;;;1.90;1.20;;;;;;;1.08;88.84;97745.00;2322909;68;20248;-77
2021/01/25 07:13:06;;;;;;;1.71;1.53;;;;;;;1.08;88.73;97747.56;2321461;68;20327;-77
2021/01/25 07:16:09;;;;;;;1.46;1.36;;;;;;;1.12;88.85;97751.84;2321121;68;20171;-80
2021/01/25 07:19:11;;;;;;;1.86;1.49;;;;;;;1.12;88.71;97763.75;2310253;69;20392;-79
2021/01/25 07:22:14;;;;;;;1.51;1.28;;;;;;;1.09;88.62;97766.31;2312709;69;20331;-79
2021/01/25 07:25:16;;;;;;;1.79;1.69;;;;;;;1.10;88.74;97771.41;2310394;69;20488;-80
2021/01/25 07:28:18;;;;;;;1.63;1.47;;;;;;;1.11;88.72;97777.38;2310211;69;20507;-78
2021/01/25 07:31:20;;;;;;;3.53;1.38;;;;;;;1.09;88.67;97781.63;2309272;69;20174;-79
2021/01/25 07:34:23;;;;;;;2.14;1.39;;;;;;;1.10;88.75;97783.34;2309733;69;20166;-75
2021/01/25 07:37:25;;;;;;;1.38;1.27;;;;;;;1.12;88.78;97786.75;2317153;69;20305;-76
2021/01/25 07:40:27;;;;;;;1.85;1.31;;;;;;;1.14;88.79;97792.75;2310129;69;20801;-76
2021/01/25 07:43:30;;;;;;;1.17;1.08;;;;;;;1.18;88.69;97797.88;2309395;69;20309;-75
2021/01/25 07:46:33;;;;;;;1.16;1.08;;;;;;;1.16;88.66;97802.13;2309316;69;20144;-77
2021/01/25 07:49:37;;;;;;;2.89;1.30;;;;;;;1.16;88.49;97803.81;2309304;69;20300;-78
2021/01/25 07:52:39;;;;;;;1.52;1.08;;;;;;;1.17;88.55;97811.50;2311358;69;20296;-79
2021/01/25 07:55:40;;;;;;;1.15;1.06;;;;;;;1.23;88.58;97818.34;2311186;69;20293;-79
2021/01/25 07:58:43;;;;;;;1.20;1.10;;;;;;;1.21;88.47;97814.94;2309322;69;20301;-80
2021/01/25 08:01:53;;;;;;;2.36;1.19;;;;;;;1.23;88.48;97822.59;2309149;69;20309;-79
2021/01/25 08:04:59;;;;;;;1.20;1.10;;;;;;;1.24;88.44;97826.88;2308708;69;20307;-80
2021/01/25 08:08:08;;;;;;;1.23;1.13;;;;;;;1.23;88.34;97832.81;2309113;69;20326;-79
2021/01/25 08:11:10;;;;;;;;;;;;;;;1.19;88.14;97840.47;2309911;69;20297;-79
2021/01/25 08:14:24;;;;;;;1.21;0.99;;;;;;;1.18;88.21;97841.31;2309055;69;20158;-80
2021/01/25 08:17:33;;;;;;;2.26;1.13;;;;;;;1.18;88.28;97843.88;2315630;69;20925;-74
2021/01/25 08:20:38;;;;;;;1.44;1.25;;;;;;;1.17;88.23;97852.41;2315714;69;20233;-74
2021/01/25 08:23:44;;;;;;;1.41;1.31;;;;;;;1.16;88.20;97854.94;2316869;68;20291;-79
2021/01/25 08:26:45;;;;;;;1.48;1.38;;;;;;;1.16;88.34;97870.28;2317994;69;20201;-80
2021/01/25 08:29:50;;;;;;;2.14;1.94;;;;;;;1.17;88.37;97867.72;2317551;69;20406;-80
2021/01/25 08:32:52;;;;;;;1.99;1.27;;;;;;;1.13;88.23;97871.13;2317154;69;20729;-80
2021/01/25 08:35:56;;;;;;;1.35;1.25;;;;;;;1.14;88.43;97872.81;2317467;69;20287;-79
2021/01/25 08:39:16;;;;;;;1.71;1.34;;;;;;;1.13;88.26;97877.94;2316600;69;20297;-79
2021/01/25 08:42:22;;;;;;;1.58;0.98;;;;;;;1.14;88.32;97882.19;2314692;69;20618;-75
2021/01/25 08:45:27;;;;;;;1.31;1.21;;;;;;;1.10;88.27;97894.09;2313892;68;20177;-76
2021/01/25 08:48:33;;;;;;;1.64;1.54;;;;;;;1.07;88.17;97895.75;2314323;69;20288;-74
2021/01/25 08:51:37;;;;;;;1.50;1.40;;;;;;;1.06;88.33;97900.00;2314143;69;20955;-76
2021/01/25 08:54:40;;;;;;;1.40;1.30;;;;;;;1.06;88.47;97906.81;2314224;68;20195;-76
2021/01/25 08:57:43;;;;;;;1.30;1.20;;;;;;;1.07;88.47;97917.03;2314522;69;20280;-75
2021/01/25 09:00:48;;;;;;;1.36;1.26;;;;;;;1.09;88.53;97915.38;2313554;69;20171;-73
2021/01/25 09:03:49;;;;;;;2.51;1.62;;;;;;;1.12;88.68;97917.13;2314566;68;20668;-74
2021/01/25 09:06:53;;;;;;;1.40;1.30;;;;;;;1.13;88.53;97919.69;2318735;68;20261;-75
2021/01/25 09:09:55;;;;;;;1.49;1.39;;;;;;;1.14;88.50;97925.66;2324616;69;20292;-83
2021/01/25 09:12:56;;;;;;;1.61;1.50;;;;;;;1.13;88.53;97927.34;2329248;68;20307;-81
2021/01/25 09:15:59;;;;;;;1.58;1.34;;;;;;;1.15;88.65;97932.47;2329462;69;20302;-84
2021/01/25 09:19:01;;;;;;;1.41;1.30;;;;;;;1.20;88.66;97938.47;2330039;69;20312;-82
2021/01/25 09:22:08;;;;;;;2.45;2.03;;;;;;;1.21;88.60;97938.47;2328632;69;20288;-82
2021/01/25 09:25:12;;;;;;;1.35;1.20;;;;;;;1.26;88.65;97953.88;2321851;68;20316;-76
2021/01/25 09:28:15;;;;;;;2.13;1.60;;;;;;;1.24;88.46;97955.53;2319273;69;20312;-76
2021/01/25 09:31:18;;;;;;;1.45;1.23;;;;;;;1.26;88.51;97956.44;2328975;69;20311;-82
2021/01/25 09:34:20;;;;;;;2.56;1.69;;;;;;;1.27;88.44;97964.97;2327460;68;20313;-83
2021/01/25 09:37:22;;;;;;;1.52;1.35;;;;;;;1.25;88.39;97964.94;2333637;68;20292;-83
2021/01/25 09:40:23;;;;;;;1.74;1.64;;;;;;;1.27;88.53;97967.53;2334122;69;20353;-83
2021/01/25 09:43:25;;;;;;;2.01;1.38;;;;;;;1.29;88.48;97976.06;2329912;68;20318;-85
2021/01/25 09:46:27;;;;;;;2.03;1.55;;;;;;;1.31;88.46;97987.16;2337750;69;20328;-85
2021/01/25 09:49:29;;;;;;;2.13;1.88;;;;;;;1.33;88.49;97991.44;2335539;69;20304;-84
2021/01/25 09:52:30;;;;;;;2.06;1.85;;;;;;;1.36;88.50;97996.56;2334712;69;20262;-83
2021/01/25 09:55:32;;;;;;;1.65;1.55;;;;;;;1.44;88.54;98004.34;2335051;68;20288;-84
2021/01/25 09:58:36;;;;;;;1.64;1.54;;;;;;;1.48;88.43;98011.19;2335267;68;20288;-83
2021/01/25 10:01:37;;;;;;;3.42;1.95;;;;;;;1.57;88.54;98016.38;2328917;69;20756;-84
2021/01/25 10:04:40;;;;;;;2.76;1.67;;;;;;;1.63;88.34;98018.16;2329055;68;20334;-83
2021/01/25 10:07:42;;;;;;;1.70;1.55;;;;;;;1.64;88.20;98023.28;2331084;69;20314;-83
2021/01/25 10:10:43;;;;;;;2.10;2.00;;;;;;;1.71;88.17;98031.84;2336340;69;20275;-82
2021/01/25 10:13:45;;;;;;;2.01;1.60;;;;;;;1.72;88.04;98036.13;2331244;69;20320;-83
2021/01/25 10:16:47;;;;;;;1.64;1.52;;;;;;;1.77;88.12;98037.88;2331540;69;20516;-83
2021/01/25 10:19:49;;;;;;;2.16;1.46;;;;;;;1.81;88.02;98054.13;2330730;69;20284;-83
2021/01/25 10:22:51;;;;;;;1.71;1.61;;;;;;;1.86;87.99;98046.47;2330408;68;20284;-83
2021/01/25 10:25:53;;;;;;;1.25;1.15;;;;;;;1.90;87.75;98051.63;2328700;69;20292;-82
2021/01/25 10:28:54;;;;;;;1.30;1.20;;;;;;;1.90;87.70;98054.19;2331631;68;20302;-83
2021/01/25 10:31:59;;;;;;;1.76;1.09;;;;;;;1.93;87.76;98055.91;2330638;68;20308;-82
2021/01/25 10:35:01;;;;;;;1.55;1.15;;;;;;;1.95;87.61;98061.88;2332827;68;20361;-84
2021/01/25 10:38:04;;;;;;;0.99;0.88;;;;;;;1.94;87.36;98063.59;2332802;69;20437;-86
2021/01/25 10:41:06;;;;;;;1.10;1.00;;;;;;;1.93;87.14;98069.56;2337822;69;20312;-85
2021/01/25 10:44:08;;;;;;;1.11;0.96;;;;;;;1.89;86.93;98077.22;2333114;68;20303;-85
2021/01/25 10:47:14;;;;;;;1.21;1.11;;;;;;;1.81;86.79;98079.72;2339150;69;20272;-85
2021/01/25 10:50:21;;;;;;;1.60;1.10;;;;;;;1.76;86.83;98084.75;2347358;68;20339;-83
2021/01/25 10:53:23;;;;;;;2.04;1.24;;;;;;;1.72;86.74;98087.28;2334256;68;20276;-83
2021/01/25 10:56:25;;;;;;;0.99;0.99;;;;;;;1.72;86.94;98092.41;2331766;69;20293;-84
2021/01/25 10:59:26;;;;;;;1.05;1.02;;;;;;;1.73;87.00;98100.09;2333789;69;20308;-83
2021/01/25 11:02:28;;;;;;;1.17;1.06;;;;;;;1.75;87.13;98100.09;2336043;69;20288;-83
2021/01/25 11:05:30;;;;;;;0.88;0.88;;;;;;;1.81;87.39;98105.31;2334475;68;20360;-84
2021/01/25 11:08:32;;;;;;;2.11;1.16;;;;;;;1.87;87.44;98110.47;2340601;69;20296;-78
2021/01/25 11:11:34;;;;;;;1.83;1.24;;;;;;;1.91;87.33;98114.75;2315896;69;20397;-77
2021/01/25 11:14:35;;;;;;;3.01;1.71;;;;;;;1.92;87.21;98116.47;2315320;68;20375;-76
2021/01/25 11:17:37;;;;;;;2.11;1.92;;;;;;;1.94;87.21;98113.94;2315987;69;20388;-75
2021/01/25 11:20:39;;;;;;;4.00;2.34;;;;;;;1.96;87.21;98123.31;2315737;69;20268;-74
2021/01/25 11:23:41;;;;;;;3.97;1.96;;;;;;;1.98;87.25;98120.81;2315546;69;20312;-73
2021/01/25 11:26:42;;;;;;;1.66;1.56;;;;;;;2.02;87.22;98122.56;2316428;69;20313;-74
2021/01/25 11:29:44;;;;;;;1.38;1.16;;;;;;;2.08;87.17;98120.03;2315556;69;20750;-73
2021/01/25 11:32:46;;;;;;;1.33;1.10;;;;;;;2.13;87.01;98132.03;2316335;68;20496;-74
2021/01/25 11:35:48;;;;;;;1.24;1.14;;;;;;;2.20;86.95;98132.09;2315986;69;20336;-73
2021/01/25 11:38:50;;;;;;;1.02;1.02;;;;;;;2.25;86.94;98132.97;2315605;69;20304;-73
2021/01/25 11:41:52;;;;;;;0.80;0.80;;;;;;;2.30;86.79;98141.53;2315628;69;20409;-75
2021/01/25 11:44:57;;;;;;;0.89;0.88;;;;;;;2.36;86.50;98142.47;2316954;68;20410;-75
2021/01/25 11:47:58;;;;;;;0.96;0.89;;;;;;;2.39;86.25;98150.19;2316593;69;20429;-74
2021/01/25 11:51:00;;;;;;;1.04;1.04;;;;;;;2.42;86.05;98146.78;2315787;69;20492;-74
2021/01/25 11:54:02;;;;;;;2.95;1.94;;;;;;;2.44;86.03;98155.31;2316339;68;20280;-74
2021/01/25 11:57:04;;;;;;;3.10;1.08;;;;;;;2.43;85.96;98159.59;2316075;69;21137;-74
2021/01/25 12:00:07;;;;;;;1.14;1.02;;;;;;;2.45;85.81;98158.75;2316157;68;20291;-73
2021/01/25 12:03:08;;;;;;;1.58;1.46;;;;;;;2.45;85.90;98162.16;2315317;68;20385;-73
2021/01/25 12:06:11;;;;;;;1.61;1.40;;;;;;;2.47;85.93;98164.72;2320645;68;20276;-74
2021/01/25 12:09:13;;;;;;;1.08;1.04;;;;;;;2.49;86.10;98170.72;2319482;68;20306;-74
2021/01/25 12:12:15;;;;;;;2.69;2.46;;;;;;;2.52;86.15;98171.63;2311299;69;20296;-74
2021/01/25 12:15:17;;;;;;;1.49;1.39;;;;;;;2.52;86.12;98179.31;2313561;68;20335;-73
2021/01/25 12:18:19;;;;;;;1.84;1.34;;;;;;;2.50;85.95;98180.97;2309622;69;20841;-73
2021/01/25 12:21:20;;;;;;;1.60;1.50;;;;;;;2.49;85.98;98184.41;2308948;69;20846;-73
2021/01/25 12:24:22;;;;;;;1.61;1.45;;;;;;;2.49;86.07;98186.09;2308415;69;20795;-73
2021/01/25 12:27:24;;;;;;;2.47;1.50;;;;;;;2.50;86.04;98190.38;2309568;69;20285;-73
2021/01/25 12:30:25;;;;;;;1.91;1.81;;;;;;;2.53;86.07;98186.16;2308638;69;20293;-73
2021/01/25 12:33:27;;;;;;;2.67;1.86;;;;;;;2.57;86.04;98195.56;2309073;69;21700;-72
2021/01/25 12:36:29;;;;;;;1.79;1.67;;;;;;;2.56;85.81;98199.00;2309318;69;21058;-73
2021/01/25 12:39:31;;;;;;;2.21;1.71;;;;;;;2.56;85.66;98201.53;2309449;69;20321;-73
2021/01/25 12:42:33;;;;;;;2.29;2.09;;;;;;;2.56;85.64;98208.38;2308251;69;20322;-73
2021/01/25 12:45:35;;;;;;;1.99;1.89;;;;;;;2.54;85.58;98207.50;2308690;69;20289;-72
2021/01/25 12:48:37;;;;;;;1.80;1.69;;;;;;;2.49;85.74;98212.56;2309373;69;20281;-72
2021/01/25 12:51:38;;;;;;;2.65;2.14;;;;;;;2.50;85.82;98214.28;2307543;69;20766;-71
2021/01/25 12:54:40;;;;;;;2.60;2.19;;;;;;;2.48;85.70;98223.66;2309089;69;20347;-72
2021/01/25 12:57:44;;;;;;;2.71;2.51;;;;;;;2.51;86.00;98228.81;2308823;69;20702;-72
2021/01/25 13:00:45;;;;;;;18.41;14.34;;;;;;;2.55;85.94;98228.03;2308635;69;20281;-72
2021/01/25 13:03:47;;;;;;;7.59;6.89;;;;;;;2.60;85.98;98228.03;2308674;69;20313;-71
2021/01/25 13:06:49;;;;;;;5.43;4.78;;;;;;;2.66;86.03;98233.22;2309348;69;20293;-70
2021/01/25 13:09:51;;;;;;;4.00;3.61;;;;;;;2.68;85.78;98237.50;2303691;69;20277;-70
2021/01/25 13:12:52;;;;;;;2.89;2.69;;;;;;;2.75;85.59;98243.56;2308302;69;20315;-70
2021/01/25 13:15:54;;;;;;;2.63;2.39;;;;;;;2.77;85.47;98249.53;2309389;69;20323;-71
2021/01/25 13:18:56;;;;;;;4.39;2.59;;;;;;;2.78;84.94;98258.09;2309170;69;20785;-71
2021/01/25 13:22:01;;;;;;;2.64;2.39;;;;;;;2.79;84.87;98260.66;2308070;69;20427;-71
2021/01/25 13:25:04;;;;;;;2.84;2.59;;;;;;;2.85;84.81;98268.38;2310148;69;20282;-71
2021/01/25 13:28:06;;;;;;;3.66;2.10;;;;;;;2.93;84.68;98263.34;2308802;69;20977;-71
2021/01/25 13:31:08;;;;;;;2.40;2.20;;;;;;;2.99;84.42;98271.06;2309527;69;20281;-73
2021/01/25 13:34:10;;;;;;;2.47;2.28;;;;;;;3.01;84.10;98272.78;2308187;69;20355;-71
2021/01/25 13:37:12;;;;;;;2.06;1.90;;;;;;;3.04;83.63;98283.06;2309091;69;20293;-71
2021/01/25 13:40:14;;;;;;;2.44;2.06;;;;;;;3.08;83.42;98286.53;2308724;69;20300;-71
2021/01/25 13:43:17;;;;;;;2.45;1.99;;;;;;;3.07;83.01;98287.38;2306647;69;20293;-73
2021/01/25 13:46:18;;;;;;;2.66;1.90;;;;;;;3.04;83.06;98285.63;2307914;69;20996;-71
2021/01/25 13:49:20;;;;;;;2.86;1.91;;;;;;;3.05;83.03;98304.44;2308111;69;20319;-71
2021/01/25 13:52:22;;;;;;;2.41;2.09;;;;;;;3.06;82.95;98305.34;2308243;69;20293;-71
2021/01/25 13:55:24;;;;;;;2.59;2.22;;;;;;;3.04;82.79;98308.72;2308850;69;20318;-70
2021/01/25 13:58:25;;;;;;;3.17;2.91;;;;;;;3.07;82.82;98314.75;2308823;69;20359;-71
2021/01/25 14:01:27;;;;;;;2.70;2.50;;;;;;;3.07;82.78;98318.16;2308084;69;20313;-71
2021/01/25 14:04:31;;;;;;;2.66;2.10;;;;;;;3.06;82.88;98318.16;2308062;69;20335;-71
2021/01/25 14:07:33;;;;;;;2.85;2.38;;;;;;;3.06;83.01;98329.28;2309333;69;20326;-70
2021/01/25 14:10:35;;;;;;;2.38;2.13;;;;;;;3.04;82.85;98321.53;2308798;69;20353;-70
2021/01/25 14:13:37;;;;;;;2.30;2.11;;;;;;;3.02;82.91;98328.34;2307921;69;20370;-71
2021/01/25 14:16:41;;;;;;;2.47;2.28;;;;;;;3.02;82.80;98332.63;2312902;69;20389;-71
2021/01/25 14:19:43;;;;;;;2.36;2.05;;;;;;;3.00;82.91;98335.19;2316138;69;20292;-71
2021/01/25 14:22:45;;;;;;;3.29;2.79;;;;;;;3.00;83.02;98339.44;2315706;69;20288;-70
2021/01/25 14:25:56;;;;;;;2.25;1.75;;;;;;;3.01;83.10;98346.28;2315870;68;20358;-70
2021/01/25 14:28:58;;;;;;;2.36;2.16;;;;;;;2.99;83.15;98348.00;2321541;68;21144;-70
2021/01/25 14:31:59;;;;;;;2.25;2.06;;;;;;;2.95;83.22;98353.94;2322501;68;20299;-70
2021/01/25 14:35:02;;;;;;;2.51;1.94;;;;;;;2.89;83.29;98357.31;2322010;68;20387;-70
2021/01/25 14:38:04;;;;;;;3.74;2.14;;;;;;;2.89;83.27;98366.72;2322302;68;20302;-70
2021/01/25 14:41:06;;;;;;;2.63;2.39;;;;;;;2.86;83.19;98374.34;2321321;68;20310;-70
2021/01/25 14:44:08;;;;;;;2.54;1.99;;;;;;;2.85;83.19;98383.75;2322352;68;20344;-70
2021/01/25 14:47:10;;;;;;;2.00;1.84;;;;;;;2.84;83.43;98378.59;2323269;68;20309;-70
2021/01/25 14:50:13;;;;;;;3.41;2.00;;;;;;;2.85;83.35;98391.44;2318665;68;20447;-70
2021/01/25 14:53:15;;;;;;;2.78;2.00;;;;;;;2.87;83.26;98401.69;2322296;68;20287;-70
2021/01/25 14:56:18;;;;;;;2.36;2.19;;;;;;;2.87;83.34;98404.25;2322403;68;20322;-70
2021/01/25 14:59:20;;;;;;;2.88;2.36;;;;;;;2.85;83.39;98406.81;2322322;68;20325;-70